Time;durP1;ratioP1;P1;durP2;ratioP2;P2;SDS_P1;SDS_P2;PMS_P1;PMS_P2;Temp;Humidity;BMP_temperature;BMP_pressure;BME280_temperature;BME280_humidity;BME280_pressure;Samples;Min_cycle;Max_cycle;Signal;HPM_P1;HPM_P2
2021/05/30 00:00:07;;;;;;;25.27;13.90;;;;;;;9.21;86.40;99371.25;3983413;88;21130;-80
2021/05/30 00:06:11;;;;;;;26.85;13.32;;;;;;;9.19;86.30;99372.17;3982942;88;21129;-80
2021/05/30 00:12:12;;;;;;;22.85;13.22;;;;;;;9.17;86.40;99368.22;3986067;88;21166;-81
2021/05/30 00:18:14;;;;;;;23.98;14.47;;;;;;;9.09;86.71;99374.10;3987829;88;21233;-80
2021/05/30 00:24:17;;;;;;;25.70;15.58;;;;;;;9.21;86.84;99371.81;3986116;88;21150;-80
2021/05/30 00:30:19;;;;;;;26.40;14.33;;;;;;;9.19;86.85;99374.91;3987980;88;21143;-80
2021/05/30 00:36:20;;;;;;;25.23;14.58;;;;;;;9.15;86.79;99370.52;3990316;87;21100;-80
2021/05/30 00:42:21;;;;;;;25.30;13.88;;;;;;;9.28;87.04;99371.42;3992159;88;21536;-80
2021/05/30 00:48:23;;;;;;;24.75;14.40;;;;;;;9.33;87.03;99370.34;3989119;88;22105;-80
2021/05/30 00:54:25;;;;;;;25.27;14.18;;;;;;;9.43;87.13;99362.37;3988548;88;21130;-80
2021/05/30 01:00:28;;;;;;;23.50;15.00;;;;;;;9.46;87.18;99358.92;3985498;88;21114;-80
2021/05/30 01:06:31;;;;;;;25.02;15.75;;;;;;;9.49;87.18;99360.93;3981691;88;21110;-80
2021/05/30 01:12:32;;;;;;;25.37;14.00;;;;;;;9.57;87.22;99363.83;3982860;88;21155;-82
2021/05/30 01:18:35;;;;;;;24.90;17.30;;;;;;;9.51;87.13;99351.80;3981270;88;21510;-79
2021/05/30 01:24:37;;;;;;;29.52;18.27;;;;;;;9.59;87.27;99358.20;3977596;88;21095;-79
2021/05/30 01:30:41;;;;;;;24.45;15.75;;;;;;;9.56;87.27;99357.56;3980235;88;21094;-80
2021/05/30 01:36:42;;;;;;;23.98;16.02;;;;;;;9.60;87.30;99353.54;3981656;88;21074;-80
2021/05/30 01:42:47;;;;;;;24.65;16.30;;;;;;;9.63;87.16;99355.55;3981894;88;21146;-83
2021/05/30 01:48:48;;;;;;;27.82;17.80;;;;;;;9.61;87.35;99357.84;3978306;88;21119;-80
2021/05/30 01:54:51;;;;;;;30.35;19.25;;;;;;;9.61;87.23;99360.02;3977959;88;21128;-82
2021/05/30 02:00:53;;;;;;;28.02;17.30;;;;;;;9.56;87.39;99364.39;3978531;88;21669;-80
2021/05/30 02:06:55;;;;;;;23.65;16.57;;;;;;;9.58;87.34;99367.56;3983087;88;21091;-80
2021/05/30 02:12:57;;;;;;;24.67;15.90;;;;;;;9.55;87.32;99364.95;3979452;88;21153;-80
2021/05/30 02:18:58;;;;;;;27.15;17.62;;;;;;;9.61;87.46;99357.84;3898263;89;21168;-80
2021/05/30 02:25:00;;;;;;;29.02;19.75;;;;;;;9.61;87.52;99355.11;3981377;88;21062;-80
2021/05/30 02:31:02;;;;;;;26.27;17.23;;;;;;;9.49;87.66;99351.36;3978640;88;22355;-81
2021/05/30 02:37:05;;;;;;;22.87;16.23;;;;;;;9.52;87.77;99355.34;3979754;88;21067;-80
2021/05/30 02:43:07;;;;;;;33.13;19.42;;;;;;;9.58;87.68;99355.83;3981646;88;21418;-80
2021/05/30 02:49:11;;;;;;;28.50;18.90;;;;;;;9.61;87.50;99352.38;3981071;88;21110;-80
2021/05/30 02:55:13;;;;;;;31.70;20.45;;;;;;;9.48;87.63;99362.66;3977602;88;21063;-79
2021/05/30 03:01:14;;;;;;;29.07;19.05;;;;;;;9.39;87.64;99360.15;3983525;88;21182;-80
2021/05/30 03:07:15;;;;;;;30.62;19.80;;;;;;;9.43;87.97;99361.56;3986733;88;21637;-80
2021/05/30 03:13:17;;;;;;;29.80;20.05;;;;;;;9.51;87.92;99360.00;3990849;86;21648;-80
2021/05/30 03:19:21;;;;;;;29.82;18.23;;;;;;;9.63;87.84;99362.38;3987850;88;21214;-79
2021/05/30 03:25:23;;;;;;;32.30;21.75;;;;;;;9.70;87.82;99371.52;3986973;88;21130;-79
2021/05/30 03:31:24;;;;;;;31.02;20.10;;;;;;;9.80;87.91;99375.62;3985589;88;21166;-80
2021/05/30 03:37:25;;;;;;;27.93;17.17;;;;;;;9.84;87.78;99371.80;3984411;87;21058;-80
2021/05/30 03:43:27;;;;;;;30.32;19.35;;;;;;;9.99;87.75;99370.14;3992183;88;21116;-80
2021/05/30 03:49:29;;;;;;;31.23;20.72;;;;;;;10.11;87.79;99363.97;3909946;87;37315;-79
2021/05/30 03:55:31;;;;;;;29.70;18.75;;;;;;;10.20;87.92;99367.81;3898311;90;21096;-80
2021/05/30 04:01:34;;;;;;;28.80;16.97;;;;;;;10.32;87.72;99384.86;3891715;90;21129;-80
2021/05/30 04:07:38;;;;;;;23.62;14.50;;;;;;;10.47;87.88;99380.44;3887217;90;21165;-80
2021/05/30 04:13:39;;;;;;;22.48;13.62;;;;;;;10.57;87.59;99381.21;3879172;90;21210;-80
2021/05/30 04:19:42;;;;;;;21.52;13.53;;;;;;;10.59;87.32;99391.19;3879261;90;21129;-80
2021/05/30 04:25:43;;;;;;;20.65;14.07;;;;;;;10.55;87.16;99390.36;3881453;90;21160;-80
2021/05/30 04:31:46;;;;;;;20.70;13.53;;;;;;;10.54;87.24;99392.30;3881877;90;21083;-80
2021/05/30 04:37:49;;;;;;;17.65;12.30;;;;;;;10.53;87.48;99401.67;3873733;90;21206;-79
2021/05/30 04:43:50;;;;;;;16.82;12.82;;;;;;;10.57;87.24;99397.64;3879931;90;21138;-81
2021/05/30 04:49:52;;;;;;;18.12;12.95;;;;;;;10.48;87.05;99406.08;3879120;90;21152;-83
2021/05/30 04:55:53;;;;;;;17.82;11.60;;;;;;;10.45;87.14;99401.90;3887105;90;21067;-80
2021/05/30 05:01:54;;;;;;;17.67;12.33;;;;;;;10.49;87.03;99408.24;3880605;90;21726;-79
2021/05/30 05:07:56;;;;;;;18.37;14.47;;;;;;;10.55;86.91;99398.56;3878575;90;21095;-78
2021/05/30 05:13:59;;;;;;;19.40;13.60;;;;;;;10.52;87.08;99405.55;3881955;90;21588;-79
2021/05/30 05:20:00;;;;;;;17.87;12.55;;;;;;;10.46;86.97;99414.45;3887233;90;21666;-79
2021/05/30 05:26:03;;;;;;;16.40;12.00;;;;;;;10.26;86.82;99428.72;3938150;87;27386;-80
2021/05/30 05:32:05;;;;;;;19.40;13.95;;;;;;;10.26;86.98;99434.77;4019657;87;21158;-82
2021/05/30 05:38:07;;;;;;;15.98;12.50;;;;;;;10.21;87.00;99437.22;4018496;87;21496;-79
2021/05/30 05:44:09;;;;;;;14.83;12.03;;;;;;;10.21;86.87;99439.95;4041363;86;21663;-78
2021/05/30 05:50:14;;;;;;;17.12;13.15;;;;;;;10.35;86.93;99436.72;4041973;86;21079;-79
2021/05/30 05:56:15;;;;;;;17.67;13.85;;;;;;;10.49;86.73;99436.38;4040452;86;21119;-79
2021/05/30 06:02:17;;;;;;;16.97;13.15;;;;;;;10.91;87.33;99433.61;4048638;86;21161;-78
2021/05/30 06:08:18;;;;;;;16.73;11.88;;;;;;;11.15;86.04;99432.44;4067665;86;21138;-80
2021/05/30 06:14:19;;;;;;;17.75;13.58;;;;;;;11.40;86.24;99437.71;4060581;86;21106;-79
2021/05/30 06:20:26;;;;;;;14.30;12.10;;;;;;;11.48;85.65;99437.42;4063307;86;21110;-80
2021/05/30 06:26:28;;;;;;;17.32;12.50;;;;;;;11.47;85.82;99437.23;4067495;86;21138;-80
2021/05/30 06:32:30;;;;;;;16.80;11.48;;;;;;;11.48;85.60;99446.25;4049200;86;21158;-80
2021/05/30 06:38:31;;;;;;;16.62;12.37;;;;;;;11.60;85.65;99451.51;4064314;86;21090;-80
2021/05/30 06:44:34;;;;;;;16.52;11.30;;;;;;;11.65;85.36;99458.08;4066114;86;21075;-79
2021/05/30 06:50:36;;;;;;;19.95;12.98;;;;;;;11.72;85.70;99461.70;4063779;86;21646;-79
2021/05/30 06:56:38;;;;;;;15.13;11.22;;;;;;;11.82;85.06;99464.39;4002334;86;21688;-80
2021/05/30 07:02:40;;;;;;;17.15;12.33;;;;;;;11.93;85.45;99464.72;3991182;87;21185;-79
2021/05/30 07:08:41;;;;;;;15.23;12.00;;;;;;;12.04;85.48;99462.91;4002682;87;21431;-80
2021/05/30 07:14:43;;;;;;;16.02;12.55;;;;;;;12.10;85.24;99460.06;3997184;87;21102;-81
2021/05/30 07:20:45;;;;;;;15.83;11.43;;;;;;;12.09;85.01;99461.81;3999816;87;21247;-80
2021/05/30 07:26:47;;;;;;;15.65;11.45;;;;;;;12.16;84.83;99466.80;3997962;87;21249;-81
2021/05/30 07:32:48;;;;;;;14.18;10.90;;;;;;;12.16;85.08;99464.05;4003960;87;21105;-80
2021/05/30 07:38:50;;;;;;;14.65;10.88;;;;;;;12.34;84.76;99460.15;3997245;87;21567;-81
2021/05/30 07:44:51;;;;;;;13.65;10.88;;;;;;;12.39;84.46;99471.57;4003941;87;21142;-81
2021/05/30 07:50:53;;;;;;;17.32;11.60;;;;;;;12.21;84.33;99486.26;3997001;87;21778;-81
2021/05/30 07:56:54;;;;;;;15.70;12.58;;;;;;;12.05;84.62;99474.11;4008499;87;21122;-80
2021/05/30 08:02:56;;;;;;;14.85;11.65;;;;;;;11.81;84.92;99481.41;3994231;87;21101;-81
2021/05/30 08:08:57;;;;;;;15.20;10.93;;;;;;;11.78;85.45;99482.16;3988952;88;21122;-80
2021/05/30 08:14:59;;;;;;;13.38;11.33;;;;;;;11.91;85.35;99491.76;3986103;88;21605;-81
2021/05/30 08:21:00;;;;;;;13.22;9.88;;;;;;;12.36;86.25;99486.05;3985244;88;21607;-81
2021/05/30 08:27:01;;;;;;;18.30;12.45;;;;;;;12.84;85.40;99482.84;3984597;88;21126;-81
2021/05/30 08:33:03;;;;;;;15.10;10.65;;;;;;;12.68;84.94;99491.30;3988137;88;21578;-81
2021/05/30 08:39:05;;;;;;;14.70;11.45;;;;;;;12.64;85.23;99495.17;3985669;88;21176;-80
2021/05/30 08:45:08;;;;;;;5.95;4.97;;;;;;;12.73;84.89;99497.06;3988845;88;21102;-79
2021/05/30 08:51:12;;;;;;;4.97;4.47;;;;;;;12.82;84.25;99501.66;3989065;88;21635;-80
2021/05/30 08:57:14;;;;;;;5.37;4.75;;;;;;;12.89;83.95;99498.20;3984720;88;22243;-81
2021/05/30 09:03:16;;;;;;;9.75;4.97;;;;;;;12.93;83.10;99501.75;3988928;87;21110;-80
2021/05/30 09:09:18;;;;;;;6.12;3.87;;;;;;;12.78;82.81;99505.54;3996323;87;21105;-81
2021/05/30 09:21:51;;;;;;;5.45;4.08;;;;;;;12.54;82.31;99510.97;3996654;87;21136;-80
2021/05/30 09:27:59;;;;;;;6.83;3.72;;;;;;;12.47;82.03;99510.30;3995731;87;21130;-81
2021/05/30 09:34:29;;;;;;;5.33;3.65;;;;;;;12.47;82.04;99511.67;3999958;87;21137;-81
2021/05/30 09:40:39;;;;;;;4.70;4.00;;;;;;;12.52;82.48;99508.60;3996131;87;21146;-81
2021/05/30 09:46:40;;;;;;;5.70;4.45;;;;;;;12.65;82.62;99514.63;3999410;87;21102;-80
2021/05/30 09:52:53;;;;;;;3.15;2.08;;;;;;;12.70;82.46;99512.13;4000013;87;21158;-81
2021/05/30 09:58:56;;;;;;;1.60;1.10;;;;;;;12.76;82.21;99516.91;3957210;86;36106;-80
2021/05/30 10:04:58;;;;;;;2.65;0.90;;;;;;;12.89;81.22;99513.31;3791225;92;22007;-81
2021/05/30 10:11:03;;;;;;;1.35;1.10;;;;;;;13.07;80.67;99508.79;3791502;92;21130;-80
2021/05/30 10:17:06;;;;;;;1.42;0.88;;;;;;;13.47;80.28;99513.66;3786733;92;21804;-84
2021/05/30 10:23:13;;;;;;;1.62;1.15;;;;;;;14.10;80.95;99504.44;3789509;92;21229;-80
2021/05/30 10:29:33;;;;;;;1.57;0.93;;;;;;;14.96;80.23;99509.86;3794277;92;21151;-81
2021/05/30 10:35:40;;;;;;;2.58;1.27;;;;;;;15.64;78.94;99510.12;3843003;90;21084;-81
2021/05/30 10:42:26;;;;;;;2.22;1.47;;;;;;;15.99;77.06;99509.27;3800094;92;21213;-80
2021/05/30 10:48:39;;;;;;;2.27;1.60;;;;;;;16.62;76.55;99502.13;3806251;92;21324;-80
2021/05/30 10:55:09;;;;;;;2.62;1.57;;;;;;;16.46;75.25;99495.70;3792406;92;21100;-81
2021/05/30 11:01:49;;;;;;;;;;;;;;;;;;;;;
2021/05/30 11:07:58;;;;;;;2.27;1.92;;;;;;;15.02;75.75;99503.36;3733379;91;21683;-81
2021/05/30 11:14:27;;;;;;;2.55;1.50;;;;;;;14.86;76.66;99500.97;3912455;89;21082;-81
2021/05/30 11:20:46;;;;;;;2.17;1.65;;;;;;;15.26;76.51;99499.84;3873118;89;21082;-81
2021/05/30 11:27:17;;;;;;;4.42;1.77;;;;;;;16.06;76.37;99489.33;3899464;89;21318;-81
2021/05/30 11:33:39;;;;;;;3.25;1.60;;;;;;;16.36;74.68;99503.42;3911160;89;22266;-80
2021/05/30 11:39:47;;;;;;;3.58;1.67;;;;;;;16.62;73.83;99489.11;3893997;88;21673;-81
2021/05/30 11:45:54;;;;;;;2.00;1.67;;;;;;;17.32;72.11;99488.45;3911042;89;21105;-84
2021/05/30 11:52:19;;;;;;;2.62;1.47;;;;;;;17.26;70.87;99485.94;3913963;89;21268;-82
2021/05/30 11:58:33;;;;;;;2.92;1.37;;;;;;;17.44;70.84;99476.31;3916404;88;21153;-80
2021/05/30 12:04:46;;;;;;;3.50;1.50;;;;;;;17.03;70.34;99480.95;3899346;89;21142;-79
2021/05/30 12:11:02;;;;;;;4.40;1.55;;;;;;;16.98;70.57;99471.11;3867069;89;21122;-80
2021/05/30 12:17:12;;;;;;;2.10;1.42;;;;;;;17.68;69.76;99471.12;3809180;90;21083;-81
2021/05/30 12:23:27;;;;;;;3.15;1.95;;;;;;;17.28;68.06;99469.10;3863614;90;21138;-81
2021/05/30 12:29:31;;;;;;;2.47;1.60;;;;;;;16.39;68.31;99474.99;3863941;90;21225;-80
2021/05/30 12:43:15;;;;;;;1.32;1.22;;;;;;;16.19;68.43;99464.23;3864769;90;21158;-81
2021/05/30 12:48:55;;;;;;;0.90;0.80;;;;;;;16.87;68.69;99453.81;3839844;90;21177;-81
2021/05/30 12:55:21;;;;;;;2.52;1.72;;;;;;;16.96;67.58;99461.66;3847161;90;21163;-81
2021/05/30 13:01:35;;;;;;;2.30;1.60;;;;;;;16.83;67.87;99464.12;3856592;90;21833;-81
2021/05/30 13:07:43;;;;;;;4.05;2.20;;;;;;;16.58;67.78;99473.16;3864874;89;21638;-82
2021/05/30 13:13:52;;;;;;;5.22;2.65;;;;;;;16.43;67.94;99470.22;3864659;90;21117;-81
2021/05/30 13:20:11;;;;;;;7.60;3.33;;;;;;;16.44;68.49;99469.09;3863743;90;21138;-81
2021/05/30 13:26:14;;;;;;;7.05;3.47;;;;;;;16.36;68.68;99466.13;3862318;90;21154;-81
2021/05/30 13:32:23;;;;;;;6.92;3.02;;;;;;;16.31;69.17;99463.78;3865190;90;21113;-81
2021/05/30 13:38:35;;;;;;;11.73;3.60;;;;;;;16.06;68.83;99469.99;3862290;90;21122;-81
2021/05/30 13:44:47;;;;;;;8.75;3.67;;;;;;;15.69;69.40;99463.57;3861200;90;22354;-81
2021/05/30 13:51:09;;;;;;;8.53;4.83;;;;;;;15.37;70.01;99466.95;3860019;90;21140;-81
2021/05/30 13:57:12;;;;;;;7.58;4.67;;;;;;;15.22;70.47;99475.02;3867498;90;21242;-81
2021/05/30 14:03:19;;;;;;;5.72;4.78;;;;;;;15.24;70.75;99467.72;3788638;92;21171;-81
2021/05/30 14:15:57;;;;;;;7.45;4.53;;;;;;;15.45;71.50;99468.55;3777926;92;21138;-81
2021/05/30 14:22:11;;;;;;;8.05;4.45;;;;;;;15.49;71.31;99466.56;3777764;93;21738;-81
2021/05/30 14:28:24;;;;;;;;;;;;;;;;;;;;;
2021/05/30 14:34:31;;;;;;;11.12;4.60;;;;;;;16.64;71.61;99463.83;3772476;93;21154;-81
2021/05/30 14:40:41;;;;;;;5.53;3.85;;;;;;;16.76;70.52;99457.83;3761692;92;21169;-81
2021/05/30 14:46:57;;;;;;;4.78;3.20;;;;;;;16.72;70.05;99466.75;3758890;93;21171;-79
2021/05/30 14:53:22;;;;;;;4.97;2.70;;;;;;;16.41;69.09;99469.06;3848373;90;21171;-81
2021/05/30 14:59:46;;;;;;;4.35;2.92;;;;;;;16.07;68.18;99476.31;3852150;91;21849;-81
2021/05/30 15:05:48;;;;;;;4.33;3.02;;;;;;;15.57;68.11;99474.23;3864790;90;21781;-80
2021/05/30 15:11:54;;;;;;;5.73;3.63;;;;;;;15.35;68.45;99482.30;3880653;90;21151;-81
2021/05/30 15:18:02;;;;;;;4.62;2.90;;;;;;;14.92;69.76;99485.66;3899938;90;21154;-81
2021/05/30 15:24:20;;;;;;;6.60;3.80;;;;;;;14.76;70.06;99483.05;3896169;90;21114;-81
2021/05/30 15:30:23;;;;;;;6.33;4.25;;;;;;;14.67;70.71;99481.27;3898255;90;21122;-80
2021/05/30 15:36:31;;;;;;;6.90;5.00;;;;;;;14.54;71.12;99495.19;3896787;89;21174;-81
2021/05/30 15:42:43;;;;;;;7.70;4.37;;;;;;;14.53;71.42;99498.55;3900454;90;21410;-81
2021/05/30 15:48:57;;;;;;;8.28;4.47;;;;;;;14.43;71.76;99492.41;3895330;90;21213;-81
2021/05/30 15:55:07;;;;;;;10.38;4.40;;;;;;;14.19;72.51;99496.61;3902781;90;21134;-81
2021/05/30 16:01:12;;;;;;;7.10;4.35;;;;;;;14.26;72.97;99492.33;3900800;90;21150;-81
2021/05/30 16:07:19;;;;;;;8.33;4.37;;;;;;;14.29;73.38;99495.69;3900927;90;21122;-81
2021/05/30 16:13:26;;;;;;;10.43;5.33;;;;;;;14.38;73.60;99498.28;3898521;90;21114;-82
2021/05/30 16:19:36;;;;;;;9.38;4.78;;;;;;;14.38;73.47;99502.41;3895599;90;21141;-81
2021/05/30 16:25:41;;;;;;;7.55;4.25;;;;;;;14.45;74.14;99504.41;3815065;90;21115;-81
2021/05/30 16:31:52;;;;;;;7.65;4.42;;;;;;;14.39;73.57;99511.48;3825859;90;21171;-82
2021/05/30 16:37:59;;;;;;;;;;;;;;;14.39;73.88;99515.61;3816782;91;21238;-81
2021/05/30 16:44:10;;;;;;;10.00;5.25;;;;;;;14.32;74.03;99518.31;3825046;92;20226;-81
2021/05/30 16:50:15;;;;;;;9.90;4.57;;;;;;;14.29;73.76;99517.14;3758853;93;21156;-81
2021/05/30 16:56:55;;;;;;;7.85;4.95;;;;;;;14.22;73.77;99514.91;3769587;92;21099;-79
2021/05/30 17:03:10;;;;;;;7.12;4.00;;;;;;;14.20;73.99;99513.31;3738671;93;21229;-81
2021/05/30 17:09:12;;;;;;;8.83;4.65;;;;;;;14.21;73.92;99516.87;3769520;93;21138;-81
2021/05/30 17:15:50;;;;;;;7.67;5.10;;;;;;;14.17;74.09;99522.35;3789940;91;21212;-81
2021/05/30 17:21:56;;;;;;;9.63;4.25;;;;;;;14.19;74.36;99524.14;3831557;91;21222;-81
2021/05/30 17:28:03;;;;;;;7.15;4.00;;;;;;;14.14;74.14;99525.88;3797156;91;21111;-81
2021/05/30 17:34:18;;;;;;;8.53;4.10;;;;;;;14.13;73.90;99522.94;3821404;91;21617;-81
2021/05/30 17:40:22;;;;;;;8.10;5.80;;;;;;;13.90;74.64;99522.42;3826312;91;21143;-81
2021/05/30 17:46:30;;;;;;;11.38;5.97;;;;;;;13.79;74.85;99522.13;3826213;91;21125;-81
2021/05/30 17:52:35;;;;;;;10.18;6.97;;;;;;;13.69;75.13;99520.89;3832686;91;21630;-80
2021/05/30 17:58:41;;;;;;;12.97;6.80;;;;;;;13.71;75.68;99519.13;3820537;91;21195;-81
2021/05/30 18:04:53;;;;;;;12.28;7.20;;;;;;;13.62;75.52;99524.19;3835234;91;21464;-81
2021/05/30 18:11:12;;;;;;;13.10;6.97;;;;;;;13.53;75.56;99538.86;3836173;91;21123;-82
2021/05/30 18:17:19;;;;;;;10.70;6.45;;;;;;;13.52;75.65;99541.38;3729276;90;10000193;-82
2021/05/30 18:23:31;;;;;;;10.18;6.92;;;;;;;13.30;76.35;99545.13;3836734;91;21119;-80
2021/05/30 18:29:46;;;;;;;14.70;7.90;;;;;;;13.07;76.51;99563.19;3837269;91;21119;-81
2021/05/30 18:36:07;;;;;;;;;;;;;;;;;;;;;
2021/05/30 18:42:05;;;;;;;19.73;9.70;;;;;;;12.92;76.65;99568.88;3830429;91;22219;-81
2021/05/30 18:48:15;;;;;;;17.17;9.05;;;;;;;12.92;77.23;99569.66;3836321;91;21253;-81
2021/05/30 18:54:36;;;;;;;15.55;9.00;;;;;;;12.83;77.16;99574.66;3824300;91;21254;-84
2021/05/30 19:00:48;;;;;;;14.65;8.50;;;;;;;12.77;77.17;99583.03;3839217;91;21067;-81
2021/05/30 19:06:54;;;;;;;15.33;8.70;;;;;;;12.73;77.44;99582.79;3815675;91;21174;-81
2021/05/30 19:13:08;;;;;;;11.68;6.97;;;;;;;12.60;77.33;99587.73;3647825;90;10000140;-80
2021/05/30 19:19:15;;;;;;;10.68;6.60;;;;;;;12.45;77.85;99593.62;3761920;93;21205;-81
2021/05/30 19:25:22;;;;;;;13.28;7.53;;;;;;;12.27;77.96;99593.19;3776219;93;21555;-82
2021/05/30 19:31:28;;;;;;;19.80;9.50;;;;;;;12.19;78.31;99592.30;3778233;93;21554;-81
2021/05/30 19:37:34;;;;;;;13.98;7.28;;;;;;;12.22;78.55;99594.30;3775961;93;21127;-81
2021/05/30 19:43:38;;;;;;;10.55;6.90;;;;;;;12.16;78.78;99597.16;3774409;93;21054;-82
2021/05/30 19:49:40;;;;;;;13.85;8.35;;;;;;;12.11;78.87;99601.59;3778464;93;21086;-81
2021/05/30 19:55:42;;;;;;;11.00;7.65;;;;;;;12.08;79.27;99596.84;3775241;93;21140;-81
2021/05/30 20:01:44;;;;;;;15.03;8.35;;;;;;;11.97;79.36;99604.70;3761536;93;21565;-81
2021/05/30 20:07:54;;;;;;;13.38;7.75;;;;;;;11.78;79.94;99604.79;3755534;93;21148;-80
2021/05/30 20:14:00;;;;;;;20.40;10.08;;;;;;;11.87;80.22;99601.23;3743360;92;21192;-81
2021/05/30 20:26:35;;;;;;;15.53;10.10;;;;;;;11.83;80.57;99586.08;3761141;93;21128;-81
2021/05/30 20:32:39;;;;;;;17.25;10.48;;;;;;;11.79;80.68;99590.70;3756610;93;21092;-81
2021/05/30 20:38:42;;;;;;;18.55;11.80;;;;;;;11.79;80.94;99576.22;3756004;93;21634;-81
2021/05/30 20:44:43;;;;;;;23.92;11.30;;;;;;;11.62;80.74;99585.70;3759971;93;21171;-81
2021/05/30 20:50:47;;;;;;;19.70;12.43;;;;;;;11.63;80.91;99590.65;3758512;93;22250;-81
2021/05/30 20:56:49;;;;;;;18.52;11.10;;;;;;;11.50;80.98;99585.91;3758524;93;21635;-80
2021/05/30 21:02:50;;;;;;;22.55;11.08;;;;;;;11.42;81.21;99597.91;3761547;93;21418;-80
2021/05/30 21:08:51;;;;;;;15.15;8.90;;;;;;;11.41;81.53;99599.64;3759423;92;21160;-81
2021/05/30 21:14:52;;;;;;;22.85;9.55;;;;;;;11.49;81.50;99597.23;3758608;93;21884;-80
2021/05/30 21:21:09;;;;;;;17.82;8.05;;;;;;;11.57;81.75;99592.09;3759671;93;21120;-80
2021/05/30 21:27:11;;;;;;;12.73;7.40;;;;;;;11.59;81.70;99592.52;3760063;93;21137;-84
2021/05/30 21:33:13;;;;;;;11.50;7.33;;;;;;;11.54;81.61;99596.34;3758486;93;21669;-80
2021/05/30 21:39:15;;;;;;;13.35;8.40;;;;;;;11.40;81.33;99596.09;3759193;93;21160;-81
2021/05/30 21:45:17;;;;;;;14.75;8.73;;;;;;;11.28;81.71;99592.75;3756353;93;21151;-80
2021/05/30 21:51:19;;;;;;;13.85;8.48;;;;;;;11.19;81.86;99596.31;3851934;91;21599;-80
2021/05/30 21:57:24;;;;;;;17.07;9.13;;;;;;;11.22;82.02;99596.95;3835451;91;21626;-80
2021/05/30 22:03:27;;;;;;;18.77;10.60;;;;;;;11.10;82.17;99591.08;3855442;91;21115;-81
2021/05/30 22:09:28;;;;;;;21.48;9.93;;;;;;;11.04;82.12;99598.79;3867742;90;21134;-81
2021/05/30 22:15:35;;;;;;;17.30;10.18;;;;;;;11.01;82.11;99602.83;3864130;90;21131;-84
2021/05/30 22:21:36;;;;;;;15.30;8.35;;;;;;;11.03;82.68;99604.06;3866490;90;21566;-80
2021/05/30 22:27:37;;;;;;;15.83;8.90;;;;;;;11.08;82.81;99601.03;3861829;90;22474;-80
2021/05/30 22:33:39;;;;;;;16.55;9.13;;;;;;;11.05;82.77;99602.33;3859141;90;21130;-81
2021/05/30 22:39:41;;;;;;;21.02;11.03;;;;;;;11.04;82.78;99598.79;3861546;90;21268;-81
2021/05/30 22:45:43;;;;;;;14.58;10.58;;;;;;;10.99;82.90;99596.94;3856382;90;22420;-81
2021/05/30 22:51:45;;;;;;;16.55;9.75;;;;;;;10.90;83.44;99588.94;3858363;90;21087;-81
2021/05/30 22:57:46;;;;;;;15.78;9.68;;;;;;;10.97;83.29;99584.98;3860828;90;21154;-80
2021/05/30 23:03:48;;;;;;;20.92;11.55;;;;;;;11.01;83.64;99579.54;3861488;90;21606;-80
2021/05/30 23:09:49;;;;;;;21.10;13.28;;;;;;;10.98;83.56;99568.74;3861592;90;21705;-80
2021/05/30 23:15:51;;;;;;;18.45;13.08;;;;;;;10.93;83.62;99569.03;3899180;90;21109;-80
2021/05/30 23:21:52;;;;;;;19.25;12.35;;;;;;;10.76;83.79;99557.17;3896123;90;21627;-80
2021/05/30 23:27:54;;;;;;;16.60;11.25;;;;;;;10.74;83.90;99561.44;3894585;90;21105;-81
2021/05/30 23:33:55;;;;;;;18.98;10.48;;;;;;;10.78;84.19;99563.66;3897609;90;21257;-80
2021/05/30 23:39:57;;;;;;;18.00;11.15;;;;;;;10.84;84.05;99561.63;3897507;90;21111;-81
2021/05/30 23:45:58;;;;;;;18.82;11.05;;;;;;;10.66;84.36;99557.78;3900714;90;21119;-82
2021/05/30 23:52:00;;;;;;;14.38;10.50;;;;;;;10.75;84.67;99553.42;3895187;90;21151;-80
2021/05/30 23:58:02;;;;;;;15.90;10.50;;;;;;;10.78;84.70;99548.59;3895812;90;21665;-81
